Aérodrome :
LOGIN :

S'inscrire | Disclaimer

   EN    FR    IT 

 










Légende :    VFR   VFR Marginal   IFR   IFR Intensif   IFR Très Intensif
Visi : 
Plafond : 
>= 8 km
>= 3000ft
5 à 8 km
1000 à 3000 ft
1500m à 5 km
500 à 1000 ft
800 à 1500m
200 à 500 ft
< 800m
< 200 ft
Symboles :   Orages  Brouillard  Fortes neiges  Fortes précipitations  Vent > 20 kt
SIGMETs :   Divers  Orages  Givrage  Turbulence  Onde Orograph.  Cendres Volcan.






- Altitude de l'aérodrome : 219 ft
- Code IATA : DNR


LFRD - Dinard

DERNIER METAR :
  • 291900Z AUTO 20007KT 9999 BKN024 OVC035 06/03 Q1029 NOSIG

METARs EXPIRÉS :
  • 291830Z AUTO 22007KT 9999 BKN025 OVC036 06/03 Q1029 NOSIG
  • 291800Z AUTO 22007KT 9999 SCT026 OVC034 06/03 Q1029 NOSIG
  • 291730Z AUTO 22007KT 9999 OVC039 06/03 Q1029 NOSIG
  • 291700Z AUTO 22006KT 9999 OVC038 06/03 Q1029 NOSIG
  • 291630Z AUTO 22006KT 9999 OVC037 06/03 Q1029 NOSIG

TAF TAF LFRD
Valide du 29 à 18h jusqu'au 30 à 18h UTC


291700Z 2918/3018 24010KT 9999 OVC030
TEMPO 2922/3008 BKN012
PROB40
TEMPO 2922/3008 4000 RA BKN006
BECMG 3006/3008 BKN012
TEMPO 3008/3013 3000 RA BKN004
BECMG 3010/3012 30010KT
BECMG 3014/3016 BKN020
ATIS : +33 2 99 16 81 50



MET'MAP, la Météo Aéronautique d'un coup d'oeil ! - Copyright ORBIFLY Décembre 2007 - Disclaimer

ORBIFLY MET'MAP TEAM :

Programmation & Développement : Alexandra Zaïnal
Sur une idée originale de : Baudouin d'Aumeries
Soutien technique & logistique : Manuel Goepfert
Assistance : Marc-Olivier Méhu




SOURCES & CREDITS :

   NOAA